createdAt,value
2022-11-24T00:00:43.515Z,25.1
2022-11-24T00:01:45.192Z,25.1
2022-11-24T00:02:47.077Z,25.1
2022-11-24T00:03:49.580Z,25.1
2022-11-24T00:04:51.121Z,25.1
2022-11-24T00:05:52.869Z,25.1
2022-11-24T00:06:54.462Z,25.1
2022-11-24T00:07:56.105Z,25.1
2022-11-24T00:08:57.965Z,25.1
2022-11-24T00:09:59.588Z,25.1
2022-11-24T00:11:01.317Z,25.1
2022-11-24T00:12:02.890Z,25.1
2022-11-24T00:13:04.431Z,25.1
2022-11-24T00:14:05.981Z,25.1
2022-11-24T00:15:07.548Z,25.1
2022-11-24T00:16:09.210Z,25.1
2022-11-24T00:17:10.790Z,25.1
2022-11-24T00:18:12.621Z,25.1
2022-11-24T00:19:18.446Z,25.1
2022-11-24T00:20:21.612Z,25.1
2022-11-24T00:21:23.195Z,25.1
2022-11-24T00:22:24.748Z,25.1
2022-11-24T00:23:26.311Z,25.1
2022-11-24T00:24:27.868Z,25.1
2022-11-24T00:25:29.414Z,25.1
2022-11-24T00:26:31.074Z,25.1
2022-11-24T00:27:32.661Z,25.1
2022-11-24T00:28:34.271Z,25
2022-11-24T00:29:35.828Z,25.1
2022-11-24T00:30:37.499Z,25.1
2022-11-24T00:31:39.342Z,25.1
2022-11-24T00:32:40.926Z,25.1
2022-11-24T00:33:42.530Z,25
2022-11-24T00:34:44.074Z,25
2022-11-24T00:35:45.647Z,25
2022-11-24T00:36:47.213Z,25
2022-11-24T00:37:48.762Z,25
2022-11-24T00:38:50.402Z,25
2022-11-24T00:39:51.953Z,25
2022-11-24T00:40:53.504Z,25
2022-11-24T00:41:55.171Z,25
2022-11-24T00:42:56.793Z,25
2022-11-24T00:43:58.341Z,25
2022-11-24T00:44:59.889Z,25
2022-11-24T00:46:03.395Z,25
2022-11-24T00:47:05.993Z,25
2022-11-24T00:48:08.550Z,25
2022-11-24T00:49:10.098Z,25
2022-11-24T00:50:11.652Z,25
2022-11-24T00:51:13.216Z,25
2022-11-24T00:52:14.831Z,25
2022-11-24T00:53:16.394Z,25
2022-11-24T00:54:17.952Z,25
2022-11-24T00:55:19.571Z,25
2022-11-24T00:56:21.124Z,25
2022-11-24T00:57:22.729Z,25
2022-11-24T00:58:24.308Z,25
2022-11-24T00:59:25.865Z,25
2022-11-24T01:00:27.446Z,25
2022-11-24T01:01:29.120Z,25
2022-11-24T01:02:31.328Z,25
2022-11-24T01:03:33.227Z,25
2022-11-24T01:04:35.306Z,25
2022-11-24T01:05:38.323Z,25
2022-11-24T01:06:39.874Z,25
2022-11-24T01:07:41.489Z,25
2022-11-24T01:08:46.162Z,25
2022-11-24T01:09:47.709Z,25
2022-11-24T01:10:49.310Z,25
2022-11-24T01:11:50.857Z,25
2022-11-24T01:12:52.519Z,24.9
2022-11-24T01:13:54.147Z,24.9
2022-11-24T01:14:55.697Z,24.9
2022-11-24T01:15:57.297Z,24.9
2022-11-24T01:16:58.986Z,24.9
2022-11-24T01:18:00.586Z,24.9
2022-11-24T01:19:02.100Z,24.9
2022-11-24T01:20:03.757Z,24.9
2022-11-24T01:21:10.197Z,24.9
2022-11-24T01:22:12.212Z,24.9
2022-11-24T01:23:13.783Z,24.9
2022-11-24T01:24:15.330Z,24.9
2022-11-24T01:25:16.876Z,24.9
2022-11-24T01:26:18.516Z,24.9
2022-11-24T01:27:20.095Z,24.9
2022-11-24T01:28:21.760Z,24.9
2022-11-24T01:29:23.336Z,24.9
2022-11-24T01:30:24.870Z,24.9
2022-11-24T01:31:26.543Z,24.9
2022-11-24T01:32:28.607Z,24.9
2022-11-24T01:33:30.151Z,24.9
2022-11-24T01:34:32.093Z,24.9
2022-11-24T01:35:35.181Z,24.9
2022-11-24T01:36:36.833Z,24.9
2022-11-24T01:37:38.388Z,24.9
2022-11-24T01:38:39.982Z,24.9
2022-11-24T01:39:41.561Z,24.9
2022-11-24T01:40:43.139Z,24.9
2022-11-24T01:41:44.689Z,24.9
2022-11-24T01:42:46.214Z,24.9
2022-11-24T01:43:47.857Z,24.9
2022-11-24T01:44:49.453Z,24.8
2022-11-24T01:45:51.108Z,24.9
2022-11-24T01:46:52.813Z,24.9
2022-11-24T01:47:54.355Z,24.9
2022-11-24T01:48:56.444Z,24.9
2022-11-24T01:49:57.991Z,24.9
2022-11-24T01:50:59.540Z,24.9
2022-11-24T01:52:01.082Z,24.8
2022-11-24T01:53:02.714Z,24.9
2022-11-24T01:54:04.298Z,24.8
2022-11-24T01:55:05.851Z,24.9
2022-11-24T01:56:07.414Z,24.9
2022-11-24T01:57:08.987Z,24.9
2022-11-24T01:58:10.648Z,24.8
2022-11-24T01:59:12.319Z,24.8
2022-11-24T02:00:13.966Z,24.8
2022-11-24T02:01:15.532Z,24.8
2022-11-24T02:02:17.653Z,24.8
2022-11-24T02:03:19.379Z,24.8
2022-11-24T02:04:21.027Z,24.8
2022-11-24T02:05:22.547Z,24.8
2022-11-24T02:06:24.207Z,24.8
2022-11-24T02:07:25.859Z,24.8
2022-11-24T02:08:27.765Z,24.8
2022-11-24T02:09:29.379Z,24.8
2022-11-24T02:10:30.919Z,24.8
2022-11-24T02:11:32.717Z,24.8
2022-11-24T02:12:34.269Z,24.8
2022-11-24T02:13:35.806Z,24.8
2022-11-24T02:14:37.566Z,24.8
2022-11-24T02:15:39.196Z,24.8
2022-11-24T02:16:41.156Z,24.8
2022-11-24T02:17:42.694Z,24.8
2022-11-24T02:18:44.402Z,24.8
2022-11-24T02:19:46.111Z,24.8
2022-11-24T02:20:47.659Z,24.8
2022-11-24T02:21:49.219Z,24.8
2022-11-24T02:22:50.761Z,24.8
2022-11-24T02:23:52.348Z,24.8
2022-11-24T02:24:53.902Z,24.8
2022-11-24T02:25:55.451Z,24.8
2022-11-24T02:26:56.972Z,24.8
2022-11-24T02:27:58.588Z,24.8
2022-11-24T02:29:00.137Z,24.8
2022-11-24T02:30:01.994Z,24.8
2022-11-24T02:31:03.631Z,24.8
2022-11-24T02:32:05.562Z,24.8
2022-11-24T02:33:07.179Z,24.8
2022-11-24T02:34:09.037Z,24.8
2022-11-24T02:35:10.778Z,24.8
2022-11-24T02:36:12.471Z,24.8
2022-11-24T02:37:14.017Z,24.8
2022-11-24T02:38:15.584Z,24.8
2022-11-24T02:39:17.288Z,24.7
2022-11-24T02:40:19.118Z,24.7
2022-11-24T02:41:20.690Z,24.8
2022-11-24T02:42:22.247Z,24.8
2022-11-24T02:43:23.855Z,24.8
2022-11-24T02:44:25.435Z,24.8
2022-11-24T02:45:27.174Z,24.7
2022-11-24T02:46:29.173Z,24.8
2022-11-24T02:47:31.021Z,24.8
2022-11-24T02:48:32.566Z,24.8
2022-11-24T02:49:34.118Z,24.8
2022-11-24T02:50:35.853Z,24.7
2022-11-24T02:51:37.583Z,24.8
2022-11-24T02:52:39.135Z,24.8
2022-11-24T02:53:40.815Z,24.7
2022-11-24T02:54:42.381Z,24.7
2022-11-24T02:55:43.951Z,24.7
2022-11-24T02:56:45.499Z,24.7
2022-11-24T02:57:47.047Z,24.7
2022-11-24T02:58:48.634Z,24.7
2022-11-24T02:59:50.186Z,24.7
2022-11-24T03:00:51.837Z,24.7
2022-11-24T03:01:53.613Z,24.7
2022-11-24T03:02:55.761Z,24.8
2022-11-24T03:03:57.665Z,24.7
2022-11-24T03:04:59.337Z,24.7
2022-11-24T03:06:00.945Z,24.7
2022-11-24T03:07:02.545Z,24.7
2022-11-24T03:08:04.214Z,24.7
2022-11-24T03:09:05.756Z,24.7
2022-11-24T03:10:07.302Z,24.7
2022-11-24T03:11:08.859Z,24.7
2022-11-24T03:12:10.430Z,24.7
2022-11-24T03:13:12.106Z,24.7
2022-11-24T03:14:13.732Z,24.7
2022-11-24T03:15:15.290Z,24.7
2022-11-24T03:16:16.986Z,24.7
2022-11-24T03:17:18.999Z,24.7
2022-11-24T03:18:20.545Z,24.7
2022-11-24T03:19:22.108Z,24.7
2022-11-24T03:20:23.663Z,24.7
2022-11-24T03:21:25.230Z,24.6
2022-11-24T03:22:26.849Z,24.6
2022-11-24T03:23:28.482Z,24.6
2022-11-24T03:24:30.040Z,24.5
2022-11-24T03:25:31.832Z,24.5
2022-11-24T03:26:33.467Z,24.5
2022-11-24T03:27:35.100Z,24.5
2022-11-24T03:28:36.673Z,24.4
2022-11-24T03:29:38.193Z,24.4
2022-11-24T03:30:39.750Z,24.4
2022-11-24T03:31:41.823Z,24.4
2022-11-24T03:32:43.894Z,24.4
2022-11-24T03:33:45.446Z,24.4
2022-11-24T03:34:47.069Z,24.4
2022-11-24T03:35:48.656Z,24.4
2022-11-24T03:36:50.197Z,24.4
2022-11-24T03:37:51.755Z,24.4
2022-11-24T03:38:53.296Z,24.4
2022-11-24T03:39:54.908Z,24.4
2022-11-24T03:40:56.451Z,24.4
2022-11-24T03:41:57.997Z,24.5
2022-11-24T03:42:59.551Z,24.5
2022-11-24T03:44:01.089Z,24.5
2022-11-24T03:45:23.020Z,24.5
2022-11-24T03:46:48.452Z,24.5
2022-11-24T03:47:50.538Z,24.6
2022-11-24T03:48:52.100Z,24.6
2022-11-24T03:49:53.683Z,24.5
2022-11-24T03:50:55.241Z,24.6
2022-11-24T03:51:56.868Z,24.6
2022-11-24T03:52:58.608Z,24.5
2022-11-24T03:54:00.222Z,24.6
2022-11-24T03:55:01.829Z,24.5
2022-11-24T03:56:03.354Z,24.5
2022-11-24T03:57:04.919Z,24.5
2022-11-24T03:58:06.527Z,24.5
2022-11-24T03:59:08.089Z,24.6
2022-11-24T04:00:09.667Z,24.6
2022-11-24T04:01:11.250Z,24.6
2022-11-24T04:02:13.020Z,24.6
2022-11-24T04:03:15.339Z,24.6
2022-11-24T04:04:17.022Z,24.6
2022-11-24T04:05:18.547Z,24.6
2022-11-24T04:06:20.086Z,24.6
2022-11-24T04:07:21.652Z,24.6
2022-11-24T04:08:23.662Z,24.6
2022-11-24T04:09:25.230Z,24.6
2022-11-24T04:10:26.794Z,24.6
2022-11-24T04:11:28.359Z,24.6
2022-11-24T04:12:29.922Z,24.6
2022-11-24T04:13:31.505Z,24.6
2022-11-24T04:14:33.373Z,24.6
2022-11-24T04:15:36.876Z,24.6
2022-11-24T04:16:38.448Z,24.6
2022-11-24T04:17:40.056Z,24.6
2022-11-24T04:18:41.952Z,24.6
2022-11-24T04:19:43.532Z,24.6
2022-11-24T04:20:45.086Z,24.6
2022-11-24T04:21:46.707Z,24.6
2022-11-24T04:22:48.612Z,24.6
2022-11-24T04:23:50.209Z,24.6
2022-11-24T04:24:51.761Z,24.6
2022-11-24T04:25:53.335Z,24.5
2022-11-24T04:26:54.915Z,24.5
2022-11-24T04:27:56.461Z,24.4
2022-11-24T04:28:58.041Z,24.4
2022-11-24T04:29:59.588Z,24.4
2022-11-24T04:31:01.252Z,24.3
2022-11-24T04:32:03.283Z,24.3
2022-11-24T04:33:04.944Z,24.2
2022-11-24T04:34:06.509Z,24.2
2022-11-24T04:35:08.439Z,24.2
2022-11-24T04:36:09.999Z,24.2
2022-11-24T04:37:11.618Z,24.2
2022-11-24T04:38:13.187Z,24.2
2022-11-24T04:40:30.339Z,24.2
2022-11-24T04:41:31.917Z,24.2
2022-11-24T04:42:33.511Z,24.1
2022-11-24T04:43:39.211Z,24
2022-11-24T04:44:42.544Z,24
2022-11-24T04:45:44.416Z,24
2022-11-24T04:46:46.008Z,23.9
2022-11-24T04:47:47.722Z,23.8
2022-11-24T04:48:49.465Z,23.7
2022-11-24T04:49:51.137Z,23.7
2022-11-24T04:50:52.912Z,23.8
2022-11-24T04:51:54.786Z,23.8
2022-11-24T04:52:56.436Z,23.8
2022-11-24T04:53:57.999Z,23.8
2022-11-24T04:54:59.587Z,23.8
2022-11-24T04:56:01.139Z,23.8
2022-11-24T04:57:02.716Z,23.8
2022-11-24T04:58:04.275Z,23.8
2022-11-24T04:59:08.324Z,23.7
2022-11-24T05:00:10.435Z,23.7
2022-11-24T05:01:12.005Z,23.6
2022-11-24T05:02:14.125Z,23.6
2022-11-24T05:03:15.766Z,23.6
2022-11-24T05:04:17.515Z,23.6
2022-11-24T05:05:19.575Z,23.6
2022-11-24T05:06:21.192Z,23.5
2022-11-24T05:07:22.814Z,23.5
2022-11-24T05:08:24.749Z,23.4
2022-11-24T05:09:41.921Z,23.4
2022-11-24T05:11:01.328Z,23.5
2022-11-24T05:12:02.896Z,23.5
2022-11-24T05:13:04.491Z,23.5
2022-11-24T05:14:06.069Z,23.5
2022-11-24T05:15:07.674Z,23.4
2022-11-24T05:16:09.332Z,23.4
2022-11-24T05:17:11.192Z,23.4
2022-11-24T05:18:12.775Z,23.3
2022-11-24T05:19:14.418Z,23.3
2022-11-24T05:20:16.065Z,23.3
2022-11-24T05:21:17.714Z,23.4
2022-11-24T05:22:19.312Z,23.4
2022-11-24T05:23:20.895Z,23.4
2022-11-24T05:24:22.572Z,23.4
2022-11-24T05:25:24.149Z,23.4
2022-11-24T05:26:25.741Z,23.4
2022-11-24T05:27:27.328Z,23.4
2022-11-24T05:28:28.904Z,23.4
2022-11-24T05:29:30.597Z,23.3
2022-11-24T05:30:32.200Z,23.3
2022-11-24T05:31:33.833Z,23.3
2022-11-24T05:32:35.786Z,23.2
2022-11-24T05:33:37.365Z,23.2
2022-11-24T05:34:39.033Z,23.2
2022-11-24T05:35:40.724Z,23.3
2022-11-24T05:36:42.289Z,23.3
2022-11-24T05:37:43.870Z,23.3
2022-11-24T05:38:45.505Z,23.3
2022-11-24T05:39:47.073Z,23.3
2022-11-24T05:40:48.639Z,23.3
2022-11-24T05:41:50.266Z,23.3
2022-11-24T05:42:51.859Z,23.3
2022-11-24T05:43:53.432Z,23.3
2022-11-24T05:44:54.987Z,23.1
2022-11-24T05:45:56.594Z,23.1
2022-11-24T05:46:58.242Z,23.1
2022-11-24T05:48:00.385Z,23.1
2022-11-24T05:49:01.975Z,23.1
2022-11-24T05:50:03.548Z,23.1
2022-11-24T05:51:09.190Z,23.1
2022-11-24T05:52:11.355Z,23.1
2022-11-24T05:53:12.985Z,23.1
2022-11-24T05:54:14.572Z,23.1
2022-11-24T05:55:16.163Z,23.2
2022-11-24T05:56:17.756Z,23.2
2022-11-24T05:57:19.531Z,23.2
2022-11-24T05:58:21.177Z,23.2
2022-11-24T05:59:22.775Z,23.2
2022-11-24T06:00:24.362Z,23.2
2022-11-24T06:01:26.007Z,23.2
2022-11-24T06:02:27.714Z,23.2
2022-11-24T06:03:30.141Z,23.2
2022-11-24T06:04:31.775Z,23.2
2022-11-24T06:05:35.069Z,23.2
2022-11-24T06:06:36.746Z,23.2
2022-11-24T06:07:38.485Z,23.2
2022-11-24T06:08:40.808Z,23.2
2022-11-24T06:09:42.394Z,23.3
2022-11-24T06:10:43.967Z,23.4
2022-11-24T06:11:45.564Z,23.4
2022-11-24T06:12:47.184Z,23.4
2022-11-24T06:13:49.059Z,23.5
2022-11-24T06:14:51.396Z,23.5
2022-11-24T06:15:52.990Z,23.6
2022-11-24T06:16:54.752Z,23.6
2022-11-24T06:17:56.972Z,23.6
2022-11-24T06:18:58.630Z,23.6
2022-11-24T06:20:00.261Z,23.7
2022-11-24T06:21:10.594Z,23.7
2022-11-24T06:22:13.852Z,23.7
2022-11-24T06:23:15.473Z,23.8
2022-11-24T06:24:17.117Z,23.8
2022-11-24T06:25:18.709Z,23.8
2022-11-24T06:26:20.351Z,23.8
2022-11-24T06:27:21.942Z,23.8
2022-11-24T06:28:23.538Z,23.8
2022-11-24T06:29:25.131Z,23.9
2022-11-24T06:30:26.742Z,23.8
2022-11-24T06:31:28.474Z,23.9
2022-11-24T06:32:30.425Z,23.9
2022-11-24T06:33:32.030Z,23.9
2022-11-24T06:34:33.810Z,24
2022-11-24T06:35:36.502Z,24
2022-11-24T06:36:38.092Z,24
2022-11-24T06:37:39.846Z,24
2022-11-24T06:38:41.546Z,24
2022-11-24T06:39:43.116Z,24
2022-11-24T06:40:44.700Z,24
2022-11-24T06:41:46.380Z,24
2022-11-24T06:42:50.544Z,24.1
2022-11-24T06:43:52.186Z,24.1
2022-11-24T06:44:53.779Z,24.1
2022-11-24T06:45:55.427Z,24.1
2022-11-24T06:46:57.464Z,24.1
2022-11-24T06:47:59.038Z,24.1
2022-11-24T06:49:00.679Z,24.2
2022-11-24T06:50:02.293Z,24.2
2022-11-24T06:51:03.934Z,24.2
2022-11-24T06:52:05.528Z,24.2
2022-11-24T06:53:07.203Z,24.3
2022-11-24T06:54:08.847Z,24.3
2022-11-24T06:55:10.423Z,24.3
2022-11-24T06:56:16.016Z,24.3
2022-11-24T06:57:18.667Z,24.3
2022-11-24T06:58:20.266Z,24.3
2022-11-24T06:59:21.894Z,24.4
2022-11-24T07:00:26.496Z,24.3
2022-11-24T07:01:28.100Z,24.4
2022-11-24T07:02:30.094Z,24.4
2022-11-24T07:03:31.842Z,24.4
2022-11-24T07:04:34.070Z,24.4
2022-11-24T07:05:37.092Z,24.4
2022-11-24T07:06:38.646Z,24.5
2022-11-24T07:07:43.229Z,24.5
2022-11-24T07:08:45.329Z,24.4
2022-11-24T07:09:46.943Z,24.5
2022-11-24T07:10:48.546Z,24.4
2022-11-24T07:11:50.134Z,24.4
2022-11-24T07:12:52.181Z,24.5
2022-11-24T07:13:58.261Z,24.5
2022-11-24T07:15:01.896Z,24.5
2022-11-24T07:16:03.570Z,24.6
2022-11-24T07:17:05.337Z,24.6
2022-11-24T07:18:06.970Z,24.6
2022-11-24T07:19:08.568Z,24.6
2022-11-24T07:20:10.203Z,24.6
2022-11-24T07:21:11.782Z,24.6
2022-11-24T07:22:13.407Z,24.6
2022-11-24T07:23:15.023Z,24.6
2022-11-24T07:24:16.732Z,24.6
2022-11-24T07:25:18.399Z,24.7
2022-11-24T07:26:20.066Z,24.7
2022-11-24T07:27:21.636Z,24.6
2022-11-24T07:28:23.226Z,24.6
2022-11-24T07:29:24.827Z,24.6
2022-11-24T07:30:26.478Z,24.7
2022-11-24T07:31:28.109Z,24.7
2022-11-24T07:32:30.006Z,24.7
2022-11-24T07:33:31.621Z,24.7
2022-11-24T07:34:33.423Z,24.8
2022-11-24T07:35:36.460Z,24.8
2022-11-24T07:36:38.064Z,24.8
2022-11-24T07:37:39.672Z,24.8
2022-11-24T07:38:41.256Z,24.8
2022-11-24T07:39:43.095Z,24.8
2022-11-24T07:40:44.785Z,24.8
2022-11-24T07:41:46.372Z,24.8
2022-11-24T07:42:47.919Z,24.8
2022-11-24T07:43:49.618Z,24.8
2022-11-24T07:44:51.191Z,24.8
2022-11-24T07:45:52.892Z,24.8
2022-11-24T07:46:55.138Z,24.8
2022-11-24T07:47:56.750Z,24.9
2022-11-24T07:48:58.371Z,24.9
2022-11-24T07:49:59.979Z,24.9
2022-11-24T07:51:01.639Z,24.9
2022-11-24T07:52:03.231Z,24.9
2022-11-24T07:53:04.893Z,24.9
2022-11-24T07:54:06.590Z,24.9
2022-11-24T07:55:08.238Z,24.9
2022-11-24T07:56:09.915Z,24.9
2022-11-24T07:57:11.561Z,25
2022-11-24T07:58:13.107Z,25
2022-11-24T07:59:15.045Z,25
2022-11-24T08:00:16.762Z,25
2022-11-24T08:01:18.522Z,25
2022-11-24T08:02:20.570Z,25
2022-11-24T08:03:22.797Z,25
2022-11-24T08:04:24.905Z,25.1
2022-11-24T08:05:29.212Z,25
2022-11-24T08:06:38.392Z,25.1
2022-11-24T08:07:49.210Z,25.1
2022-11-24T08:08:53.753Z,25.1
2022-11-24T08:09:55.316Z,25.1
2022-11-24T08:10:57.083Z,25.1
2022-11-24T08:11:58.749Z,25.1
2022-11-24T08:13:00.409Z,25.1
2022-11-24T08:14:02.031Z,25.1
2022-11-24T08:15:08.004Z,25.1
2022-11-24T08:16:13.138Z,25.1
2022-11-24T08:17:15.375Z,25.1
2022-11-24T08:18:17.901Z,25.1
2022-11-24T08:19:19.560Z,25.1
2022-11-24T08:20:21.147Z,25.1
2022-11-24T08:21:22.729Z,25.1
2022-11-24T08:22:24.770Z,25.1
2022-11-24T08:23:26.409Z,25.1
2022-11-24T08:24:27.995Z,25.1
2022-11-24T08:25:29.631Z,25.1
2022-11-24T08:26:31.277Z,25.1
2022-11-24T08:27:32.932Z,25.1
2022-11-24T08:28:34.531Z,25.1
2022-11-24T08:29:36.164Z,25.1
2022-11-24T08:30:37.896Z,25.1
2022-11-24T08:31:39.552Z,25.1
2022-11-24T08:32:41.534Z,25.1
2022-11-24T08:33:43.150Z,25.1
2022-11-24T08:34:44.789Z,25.1
2022-11-24T08:35:46.373Z,25.1
2022-11-24T08:36:47.962Z,25.1
2022-11-24T08:37:49.544Z,25.1
2022-11-24T08:38:51.145Z,25.1
2022-11-24T08:39:52.852Z,25.1
2022-11-24T08:40:54.510Z,25.1
2022-11-24T08:41:56.197Z,25.2
2022-11-24T08:42:57.809Z,25.2
2022-11-24T08:43:59.558Z,25.2
2022-11-24T08:45:08.392Z,25.2
2022-11-24T08:46:27.137Z,25.3
2022-11-24T08:47:29.317Z,25.3
2022-11-24T08:48:30.913Z,25.3
2022-11-24T08:49:32.523Z,25.3
2022-11-24T08:50:34.123Z,25.3
2022-11-24T08:51:35.737Z,25.3
2022-11-24T08:52:37.499Z,25.3
2022-11-24T08:53:39.095Z,25.3
2022-11-24T08:54:40.722Z,25.3
2022-11-24T08:55:42.313Z,25.3
2022-11-24T08:56:43.945Z,25.3
2022-11-24T08:57:45.625Z,25.3
2022-11-24T08:58:47.415Z,25.3
2022-11-24T08:59:49.224Z,25.3
2022-11-24T09:00:50.875Z,25.3
2022-11-24T09:01:52.512Z,25.3
2022-11-24T09:02:54.436Z,25.3
2022-11-24T09:03:56.205Z,25.3
2022-11-24T09:04:58.417Z,25.3
2022-11-24T09:06:00.005Z,25.3
2022-11-24T09:07:01.610Z,25.4
2022-11-24T09:08:03.213Z,25.3
2022-11-24T09:09:04.837Z,25.3
2022-11-24T09:10:06.434Z,25.3
2022-11-24T09:11:08.044Z,25.3
2022-11-24T09:12:14.243Z,25.3
2022-11-24T09:13:16.593Z,25.3
2022-11-24T09:14:18.260Z,25.3
2022-11-24T09:15:19.842Z,25.3
2022-11-24T09:16:21.558Z,25.3
2022-11-24T09:17:23.554Z,25.3
2022-11-24T09:18:28.945Z,25.3
2022-11-24T09:19:32.549Z,25.3
2022-11-24T09:20:35.762Z,25.3
2022-11-24T09:21:37.655Z,25.3
2022-11-24T09:22:39.347Z,25.3
2022-11-24T09:23:40.938Z,25.3
2022-11-24T09:24:42.534Z,25.3
2022-11-24T09:25:44.153Z,25.3
2022-11-24T09:26:47.536Z,25.3
2022-11-24T09:27:49.675Z,25.3
2022-11-24T09:28:51.389Z,25.3
2022-11-24T09:29:53.023Z,25.3
2022-11-24T09:30:54.707Z,25.3
2022-11-24T09:31:59.638Z,25.3
2022-11-24T09:33:08.653Z,25.3
2022-11-24T09:34:10.262Z,25.4
2022-11-24T09:35:11.856Z,25.4
2022-11-24T09:36:13.530Z,25.4
2022-11-24T09:37:15.099Z,25.4
2022-11-24T09:38:16.771Z,25.4
2022-11-24T09:39:18.370Z,25.3
2022-11-24T09:40:19.991Z,25.4
2022-11-24T09:41:21.620Z,25.3
2022-11-24T09:42:23.247Z,25.3
2022-11-24T09:43:24.823Z,25.3
2022-11-24T09:44:26.478Z,25.4
2022-11-24T09:45:49.262Z,25.4
2022-11-24T09:47:08.371Z,25.4
2022-11-24T09:48:10.401Z,25.4
2022-11-24T09:49:12.000Z,25.4
2022-11-24T09:50:16.247Z,25.4
2022-11-24T09:51:17.975Z,25.4
2022-11-24T09:52:19.609Z,25.4
2022-11-24T09:53:21.258Z,25.4
2022-11-24T09:54:22.830Z,25.4
2022-11-24T09:55:24.466Z,25.4
2022-11-24T09:56:26.065Z,25.4
2022-11-24T09:57:30.392Z,25.4
2022-11-24T09:58:39.297Z,25.4
2022-11-24T09:59:40.966Z,25.4
2022-11-24T10:00:42.567Z,25.4
2022-11-24T10:01:44.222Z,25.4
2022-11-24T10:02:46.480Z,25.4
2022-11-24T10:03:48.071Z,25.4
2022-11-24T10:04:49.778Z,25.4
2022-11-24T10:05:51.581Z,25.4
2022-11-24T10:06:53.162Z,25.4
2022-11-24T10:07:54.848Z,25.4
2022-11-24T10:08:56.885Z,25.4
2022-11-24T10:09:58.473Z,25.4
2022-11-24T10:11:00.137Z,25.4
2022-11-24T10:12:01.707Z,25.5
2022-11-24T10:13:03.400Z,25.5
2022-11-24T10:14:05.016Z,25.5
2022-11-24T10:15:06.751Z,25.4
2022-11-24T10:16:08.414Z,25.5
2022-11-24T10:17:10.410Z,25.5
2022-11-24T10:18:16.637Z,25.5
2022-11-24T10:19:18.984Z,25.5
2022-11-24T10:20:20.690Z,25.6
2022-11-24T10:21:22.265Z,25.6
2022-11-24T10:22:23.902Z,25.5
2022-11-24T10:23:25.529Z,25.5
2022-11-24T10:24:27.257Z,25.5
2022-11-24T10:25:28.856Z,25.5
2022-11-24T10:26:30.468Z,25.5
2022-11-24T10:27:32.183Z,25.5
2022-11-24T10:28:33.884Z,25.5
2022-11-24T10:29:35.853Z,25.5
2022-11-24T10:30:38.860Z,25.5
2022-11-24T10:31:41.160Z,25.5
2022-11-24T10:32:42.739Z,25.6
2022-11-24T10:33:44.308Z,25.6
2022-11-24T10:34:45.943Z,25.5
2022-11-24T10:35:47.570Z,25.5
2022-11-24T10:36:49.238Z,25.5
2022-11-24T10:37:50.960Z,25.5
2022-11-24T10:38:52.701Z,25.6
2022-11-24T10:39:58.642Z,25.6
2022-11-24T10:41:02.301Z,25.6
2022-11-24T10:42:03.935Z,25.6
2022-11-24T10:43:05.580Z,25.6
2022-11-24T10:44:07.173Z,25.6
2022-11-24T10:45:09.842Z,25.6
2022-11-24T10:46:11.694Z,25.6
2022-11-24T10:47:13.674Z,25.6
2022-11-24T10:48:15.328Z,25.6
2022-11-24T10:49:16.938Z,25.6
2022-11-24T10:50:19.026Z,25.6
2022-11-24T10:51:20.670Z,25.6
2022-11-24T10:52:22.459Z,25.6
2022-11-24T10:53:24.111Z,25.6
2022-11-24T10:54:25.828Z,25.6
2022-11-24T10:55:27.427Z,25.6
2022-11-24T10:56:29.106Z,25.7
2022-11-24T10:57:30.763Z,25.7
2022-11-24T10:58:37.234Z,25.7
2022-11-24T10:59:40.159Z,25.7
2022-11-24T11:00:41.721Z,25.7
2022-11-24T11:01:43.459Z,25.7
2022-11-24T11:02:45.542Z,25.7
2022-11-24T11:03:47.632Z,25.8
2022-11-24T11:04:49.299Z,25.7
2022-11-24T11:05:50.961Z,25.7
2022-11-24T11:06:55.217Z,25.7
2022-11-24T11:07:59.673Z,25.7
2022-11-24T11:09:07.486Z,25.7
2022-11-24T11:10:09.223Z,25.7
2022-11-24T11:11:10.909Z,25.7
2022-11-24T11:12:36.201Z,25.7
2022-11-24T11:13:47.088Z,25.7
2022-11-24T11:14:48.697Z,25.7
2022-11-24T11:15:50.357Z,25.7
2022-11-24T11:16:52.701Z,25.7
2022-11-24T11:17:54.319Z,25.7
2022-11-24T11:18:56.046Z,25.7
2022-11-24T11:20:02.154Z,25.7
2022-11-24T11:21:05.794Z,25.7
2022-11-24T11:22:07.407Z,25.7
2022-11-24T11:23:09.131Z,25.7
2022-11-24T11:24:10.804Z,25.7
2022-11-24T11:25:12.419Z,25.7
2022-11-24T11:26:14.081Z,25.6
2022-11-24T11:27:15.693Z,25.6
2022-11-24T11:28:18.244Z,25.6
2022-11-24T11:35:17.881Z,25.7
2022-11-24T11:36:19.519Z,25.7
2022-11-24T11:37:21.105Z,25.6
2022-11-24T11:38:22.705Z,25.6
2022-11-24T11:39:24.280Z,25.6
2022-11-24T11:40:25.949Z,25.6
2022-11-24T11:41:27.552Z,25.5
2022-11-24T11:43:00.533Z,25.5
2022-11-24T11:44:05.386Z,25.6
2022-11-24T11:45:07.029Z,25.6
2022-11-24T11:46:08.830Z,25.6
2022-11-24T11:47:11.519Z,25.6
2022-11-24T11:48:13.538Z,25.6
2022-11-24T11:49:15.152Z,25.6
2022-11-24T11:50:16.872Z,25.6
2022-11-24T11:51:23.560Z,25.5
2022-11-24T11:52:26.592Z,25.5
2022-11-24T11:53:28.218Z,25.6
2022-11-24T11:54:29.921Z,25.6
2022-11-24T11:55:35.378Z,25.6
2022-11-24T11:56:36.983Z,25.6
2022-11-24T11:57:38.586Z,25.6
2022-11-24T11:58:40.238Z,25.6
2022-11-24T11:59:41.822Z,25.6
2022-11-24T12:00:43.530Z,25.6
2022-11-24T12:01:45.176Z,25.6
2022-11-24T12:02:51.633Z,25.6
2022-11-24T12:03:56.142Z,25.6
2022-11-24T12:04:58.538Z,25.6
2022-11-24T12:06:00.264Z,25.6
2022-11-24T12:07:01.941Z,25.6
2022-11-24T12:08:08.102Z,25.6
2022-11-24T12:09:22.989Z,25.6
2022-11-24T12:10:24.616Z,25.6
2022-11-24T12:11:26.400Z,25.6
2022-11-24T12:12:28.645Z,25.6
2022-11-24T12:13:30.196Z,25.6
2022-11-24T12:14:31.808Z,25.6
2022-11-24T12:15:33.392Z,25.6
2022-11-24T12:16:35.099Z,25.7
2022-11-24T12:17:37.329Z,25.7
2022-11-24T12:18:56.893Z,25.7
2022-11-24T12:20:00.841Z,25.7
2022-11-24T12:21:02.519Z,25.8
2022-11-24T12:22:04.252Z,25.8
2022-11-24T12:23:05.926Z,25.8
2022-11-24T12:24:07.601Z,25.7
2022-11-24T12:25:09.179Z,25.7
2022-11-24T12:26:10.755Z,25.7
2022-11-24T12:27:12.361Z,25.7
2022-11-24T12:28:24.446Z,25.7
2022-11-24T12:29:26.133Z,25.7
2022-11-24T12:30:27.750Z,25.7
2022-11-24T12:31:29.365Z,25.7
2022-11-24T12:32:31.232Z,25.7
2022-11-24T12:33:32.914Z,25.7
2022-11-24T12:34:34.694Z,25.7
2022-11-24T12:35:36.309Z,25.7
2022-11-24T12:36:37.950Z,25.7
2022-11-24T12:37:39.549Z,25.8
2022-11-24T12:38:41.158Z,25.8
2022-11-24T12:39:42.762Z,25.8
2022-11-24T12:40:47.053Z,25.8
2022-11-24T12:41:48.980Z,25.8
2022-11-24T12:42:50.605Z,25.8
2022-11-24T12:43:52.266Z,25.8
2022-11-24T12:44:53.882Z,25.8
2022-11-24T12:45:55.471Z,25.9
2022-11-24T12:46:57.124Z,25.9
2022-11-24T12:47:59.145Z,25.8
2022-11-24T12:49:00.808Z,25.8
2022-11-24T12:50:02.479Z,25.9
2022-11-24T12:51:04.303Z,25.9
2022-11-24T12:52:05.960Z,25.8
2022-11-24T12:53:07.643Z,25.9
2022-11-24T12:54:09.253Z,25.8
2022-11-24T12:55:10.847Z,25.8
2022-11-24T12:56:12.555Z,25.8
2022-11-24T12:57:14.139Z,25.9
2022-11-24T12:58:15.732Z,25.9
2022-11-24T12:59:17.287Z,25.8
2022-11-24T13:00:18.910Z,25.8
2022-11-24T13:01:20.555Z,25.8
2022-11-24T13:02:22.827Z,25.8
2022-11-24T13:03:25.295Z,25.8
2022-11-24T13:04:26.972Z,25.8
2022-11-24T13:05:28.558Z,25.8
2022-11-24T13:06:30.278Z,25.8
2022-11-24T13:07:31.939Z,25.8
2022-11-24T13:08:33.935Z,25.8
2022-11-24T13:09:35.510Z,25.8
2022-11-24T13:12:08.782Z,25.8
2022-11-24T13:13:10.391Z,25.8
2022-11-24T13:14:12.047Z,25.8
2022-11-24T13:15:30.152Z,25.8
2022-11-24T13:17:06.027Z,25.8
2022-11-24T13:25:18.560Z,26
2022-11-24T13:26:20.172Z,26
2022-11-24T13:27:24.747Z,26
2022-11-24T13:28:46.434Z,26
2022-11-24T13:30:26.896Z,25.9
2022-11-24T13:31:28.548Z,25.9
2022-11-24T13:32:30.870Z,25.9
2022-11-24T13:33:32.460Z,25.9
2022-11-24T13:34:34.268Z,25.9
2022-11-24T13:35:37.113Z,25.8
2022-11-24T13:36:38.711Z,25.8
2022-11-24T13:37:40.276Z,25.8
2022-11-24T13:38:41.918Z,25.8
2022-11-24T13:39:48.960Z,25.8
2022-11-24T13:41:13.252Z,25.8
2022-11-24T13:42:41.405Z,25.8
2022-11-24T13:43:48.726Z,25.8
2022-11-24T13:44:50.299Z,25.8
2022-11-24T13:45:51.887Z,25.8
2022-11-24T13:46:53.516Z,25.8
2022-11-24T13:47:55.533Z,25.8
2022-11-24T13:48:57.194Z,25.7
2022-11-24T13:49:58.813Z,25.7
2022-11-24T13:51:00.843Z,25.7
2022-11-24T13:52:02.415Z,25.7
2022-11-24T13:53:04.040Z,25.8
2022-11-24T13:54:05.615Z,25.8
2022-11-24T13:55:11.309Z,25.9
2022-11-24T13:56:13.444Z,25.9
2022-11-24T13:57:15.621Z,25.9
2022-11-24T13:58:17.276Z,25.9
2022-11-24T13:59:18.904Z,25.8
2022-11-24T14:00:20.590Z,25.8
2022-11-24T14:01:22.209Z,25.8
2022-11-24T14:02:24.872Z,25.8
2022-11-24T14:03:26.590Z,25.8
2022-11-24T14:04:30.848Z,25.8
2022-11-24T14:05:35.332Z,25.8
2022-11-24T14:06:36.933Z,25.8
2022-11-24T14:07:38.528Z,25.8
2022-11-24T14:08:40.402Z,25.7
2022-11-24T14:09:42.087Z,25.7
2022-11-24T14:10:43.711Z,25.7
2022-11-24T14:11:45.363Z,25.7